ADDS METAR Data INFO
IDs: Format: Raw Decoded Include TAF

Data at: 0339 UTC 24 Feb 2017

METAR for:KDRT (Del Rio Intl, TX, US)
Text:KDRT 240253Z AUTO 00000KT 10SM CLR 23/05 A2956 RMK AO2 SLP998 T02280050 53013
Temperature: 22.8°C ( 73°F)
Dewpoint: 5.0°C ( 41°F) [RH = 31%]
Pressure (altimeter):29.56 inches Hg (1001.1 mb) [Sea level pressure: 999.8 mb]
Winds:calm
Visibility:10 or more sm (16+ km)
Ceiling:at least 12,000 feet AGL
Clouds:sky clear below 12,000 feet AGL
QC Flag:automated observation with no human augmentation


Page loaded:  03:39 UTC  |   07:39 PM Pacific  |   08:39 PM Mountain  |   09:39 PM Central  |   10:39 PM Eastern

 

ADVISORIES

FORECASTS

FORECASTS

OBSERVATIONS

USER TOOLS

ABOUT US